sensor_id;sensor_type;location;lat;lon;timestamp;P1;durP1;ratioP1;P2;durP2;ratioP2
38208;SDS011;24016;52.102;11.584;2023-04-01T00:01:45;5.65;;;1.48;;
38208;SDS011;24016;52.102;11.584;2023-04-01T00:04:11;5.60;;;1.55;;
38208;SDS011;24016;52.102;11.584;2023-04-01T00:06:36;3.47;;;1.60;;
38208;SDS011;24016;52.102;11.584;2023-04-01T00:09:02;4.45;;;1.77;;
38208;SDS011;24016;52.102;11.584;2023-04-01T00:11:28;7.35;;;1.95;;
38208;SDS011;24016;52.102;11.584;2023-04-01T00:13:53;6.32;;;2.00;;
38208;SDS011;24016;52.102;11.584;2023-04-01T00:16:20;3.85;;;1.50;;
38208;SDS011;24016;52.102;11.584;2023-04-01T00:18:46;6.07;;;1.80;;
38208;SDS011;24016;52.102;11.584;2023-04-01T00:21:12;6.72;;;1.90;;
38208;SDS011;24016;52.102;11.584;2023-04-01T00:23:38;5.93;;;1.80;;
38208;SDS011;24016;52.102;11.584;2023-04-01T00:26:03;3.30;;;1.65;;
38208;SDS011;24016;52.102;11.584;2023-04-01T00:28:29;5.20;;;1.60;;
38208;SDS011;24016;52.102;11.584;2023-04-01T00:30:55;9.82;;;2.60;;
38208;SDS011;24016;52.102;11.584;2023-04-01T00:33:20;6.32;;;1.83;;
38208;SDS011;24016;52.102;11.584;2023-04-01T00:35:46;5.88;;;2.17;;
38208;SDS011;24016;52.102;11.584;2023-04-01T00:38:12;5.72;;;2.00;;
38208;SDS011;24016;52.102;11.584;2023-04-01T00:40:39;7.90;;;2.08;;
38208;SDS011;24016;52.102;11.584;2023-04-01T00:45:39;9.65;;;2.67;;
38208;SDS011;24016;52.102;11.584;2023-04-01T00:48:29;7.28;;;1.90;;
38208;SDS011;24016;52.102;11.584;2023-04-01T00:50:55;6.82;;;2.00;;
38208;SDS011;24016;52.102;11.584;2023-04-01T00:53:24;6.47;;;2.28;;
38208;SDS011;24016;52.102;11.584;2023-04-01T00:55:55;8.23;;;2.22;;
38208;SDS011;24016;52.102;11.584;2023-04-01T00:58:24;7.60;;;2.10;;
38208;SDS011;24016;52.102;11.584;2023-04-01T01:00:53;8.27;;;2.20;;
38208;SDS011;24016;52.102;11.584;2023-04-01T01:03:20;7.18;;;2.60;;
38208;SDS011;24016;52.102;11.584;2023-04-01T01:05:50;8.10;;;2.50;;
38208;SDS011;24016;52.102;11.584;2023-04-01T01:09:06;11.25;;;2.42;;
38208;SDS011;24016;52.102;11.584;2023-04-01T01:11:52;7.10;;;2.65;;
38208;SDS011;24016;52.102;11.584;2023-04-01T01:14:34;7.40;;;2.75;;
38208;SDS011;24016;52.102;11.584;2023-04-01T01:26:09;7.13;;;3.17;;
38208;SDS011;24016;52.102;11.584;2023-04-01T01:29:01;9.73;;;3.55;;
38208;SDS011;24016;52.102;11.584;2023-04-01T01:32:03;12.45;;;3.60;;
38208;SDS011;24016;52.102;11.584;2023-04-01T01:34:47;7.87;;;3.27;;
38208;SDS011;24016;52.102;11.584;2023-04-01T01:37:23;11.70;;;3.40;;
38208;SDS011;24016;52.102;11.584;2023-04-01T01:39:55;9.93;;;3.30;;
38208;SDS011;24016;52.102;11.584;2023-04-01T01:42:26;12.05;;;4.38;;
38208;SDS011;24016;52.102;11.584;2023-04-01T01:44:54;12.98;;;4.03;;
38208;SDS011;24016;52.102;11.584;2023-04-01T01:47:21;10.88;;;4.00;;
38208;SDS011;24016;52.102;11.584;2023-04-01T01:49:48;11.90;;;4.07;;
38208;SDS011;24016;52.102;11.584;2023-04-01T01:52:16;15.32;;;4.45;;
38208;SDS011;24016;52.102;11.584;2023-04-01T01:54:52;12.82;;;4.07;;
38208;SDS011;24016;52.102;11.584;2023-04-01T01:57:20;7.63;;;3.78;;
38208;SDS011;24016;52.102;11.584;2023-04-01T01:59:49;10.20;;;4.10;;
38208;SDS011;24016;52.102;11.584;2023-04-01T02:02:17;12.43;;;4.13;;
38208;SDS011;24016;52.102;11.584;2023-04-01T02:04:44;12.52;;;4.40;;
38208;SDS011;24016;52.102;11.584;2023-04-01T02:07:13;10.02;;;4.38;;
38208;SDS011;24016;52.102;11.584;2023-04-01T02:09:42;10.05;;;3.97;;
38208;SDS011;24016;52.102;11.584;2023-04-01T02:12:08;14.88;;;4.53;;
38208;SDS011;24016;52.102;11.584;2023-04-01T02:17:14;12.27;;;4.50;;
38208;SDS011;24016;52.102;11.584;2023-04-01T02:22:14;11.55;;;5.03;;
38208;SDS011;24016;52.102;11.584;2023-04-01T02:24:45;11.75;;;4.82;;
38208;SDS011;24016;52.102;11.584;2023-04-01T02:27:11;10.82;;;5.22;;
38208;SDS011;24016;52.102;11.584;2023-04-01T02:29:37;15.85;;;5.97;;
38208;SDS011;24016;52.102;11.584;2023-04-01T02:32:03;12.70;;;5.18;;
38208;SDS011;24016;52.102;11.584;2023-04-01T02:34:31;16.38;;;5.95;;
38208;SDS011;24016;52.102;11.584;2023-04-01T02:36:58;14.98;;;6.28;;
38208;SDS011;24016;52.102;11.584;2023-04-01T02:39:25;13.75;;;6.00;;
38208;SDS011;24016;52.102;11.584;2023-04-01T02:41:51;13.90;;;5.95;;
38208;SDS011;24016;52.102;11.584;2023-04-01T02:44:17;18.45;;;6.88;;
38208;SDS011;24016;52.102;11.584;2023-04-01T02:46:44;17.90;;;6.80;;
38208;SDS011;24016;52.102;11.584;2023-04-01T02:49:10;14.10;;;5.78;;
38208;SDS011;24016;52.102;11.584;2023-04-01T02:51:36;17.13;;;6.72;;
38208;SDS011;24016;52.102;11.584;2023-04-01T02:54:01;11.27;;;6.35;;
38208;SDS011;24016;52.102;11.584;2023-04-01T02:56:27;17.52;;;7.40;;
38208;SDS011;24016;52.102;11.584;2023-04-01T02:58:53;16.35;;;6.97;;
38208;SDS011;24016;52.102;11.584;2023-04-01T03:01:19;14.15;;;6.80;;
38208;SDS011;24016;52.102;11.584;2023-04-01T03:03:45;14.18;;;6.95;;
38208;SDS011;24016;52.102;11.584;2023-04-01T03:06:12;15.35;;;6.88;;
38208;SDS011;24016;52.102;11.584;2023-04-01T03:08:38;16.85;;;7.07;;
38208;SDS011;24016;52.102;11.584;2023-04-01T03:11:04;19.60;;;7.07;;
38208;SDS011;24016;52.102;11.584;2023-04-01T03:13:30;21.02;;;7.78;;
38208;SDS011;24016;52.102;11.584;2023-04-01T03:15:56;15.02;;;7.28;;
38208;SDS011;24016;52.102;11.584;2023-04-01T03:18:22;24.15;;;7.72;;
38208;SDS011;24016;52.102;11.584;2023-04-01T03:20:47;19.85;;;7.60;;
38208;SDS011;24016;52.102;11.584;2023-04-01T03:23:13;19.98;;;7.60;;
38208;SDS011;24016;52.102;11.584;2023-04-01T03:25:39;17.30;;;8.30;;
38208;SDS011;24016;52.102;11.584;2023-04-01T03:28:04;23.35;;;8.60;;
38208;SDS011;24016;52.102;11.584;2023-04-01T03:30:30;15.60;;;7.45;;
38208;SDS011;24016;52.102;11.584;2023-04-01T03:32:56;25.15;;;8.50;;
38208;SDS011;24016;52.102;11.584;2023-04-01T03:35:22;21.50;;;8.57;;
38208;SDS011;24016;52.102;11.584;2023-04-01T03:37:49;21.92;;;8.65;;
38208;SDS011;24016;52.102;11.584;2023-04-01T03:40:15;22.35;;;9.10;;
38208;SDS011;24016;52.102;11.584;2023-04-01T03:42:41;16.75;;;8.00;;
38208;SDS011;24016;52.102;11.584;2023-04-01T03:45:07;19.65;;;8.25;;
38208;SDS011;24016;52.102;11.584;2023-04-01T03:47:33;26.15;;;9.18;;
38208;SDS011;24016;52.102;11.584;2023-04-01T03:49:59;14.93;;;7.88;;
38208;SDS011;24016;52.102;11.584;2023-04-01T03:52:24;19.17;;;8.23;;
38208;SDS011;24016;52.102;11.584;2023-04-01T03:54:50;24.23;;;8.40;;
38208;SDS011;24016;52.102;11.584;2023-04-01T03:57:16;21.40;;;9.45;;
38208;SDS011;24016;52.102;11.584;2023-04-01T03:59:41;19.35;;;8.80;;
38208;SDS011;24016;52.102;11.584;2023-04-01T04:02:07;21.15;;;8.88;;
38208;SDS011;24016;52.102;11.584;2023-04-01T04:04:32;17.10;;;8.20;;
38208;SDS011;24016;52.102;11.584;2023-04-01T04:06:58;22.73;;;8.95;;
38208;SDS011;24016;52.102;11.584;2023-04-01T04:09:24;21.88;;;9.15;;
38208;SDS011;24016;52.102;11.584;2023-04-01T04:11:49;21.65;;;9.10;;
38208;SDS011;24016;52.102;11.584;2023-04-01T04:14:15;22.70;;;9.05;;
38208;SDS011;24016;52.102;11.584;2023-04-01T04:16:41;24.75;;;9.30;;
38208;SDS011;24016;52.102;11.584;2023-04-01T04:19:07;22.95;;;8.70;;
38208;SDS011;24016;52.102;11.584;2023-04-01T04:21:33;23.08;;;8.82;;
38208;SDS011;24016;52.102;11.584;2023-04-01T04:23:59;22.77;;;8.70;;
38208;SDS011;24016;52.102;11.584;2023-04-01T04:26:25;24.95;;;9.60;;
38208;SDS011;24016;52.102;11.584;2023-04-01T04:28:51;21.75;;;9.07;;
38208;SDS011;24016;52.102;11.584;2023-04-01T04:31:21;19.50;;;8.45;;
38208;SDS011;24016;52.102;11.584;2023-04-01T04:33:48;21.80;;;9.35;;
38208;SDS011;24016;52.102;11.584;2023-04-01T04:36:13;28.13;;;10.35;;
38208;SDS011;24016;52.102;11.584;2023-04-01T04:38:39;17.58;;;9.13;;
38208;SDS011;24016;52.102;11.584;2023-04-01T04:41:15;18.65;;;9.10;;
38208;SDS011;24016;52.102;11.584;2023-04-01T04:43:47;26.40;;;9.25;;
38208;SDS011;24016;52.102;11.584;2023-04-01T04:46:17;24.30;;;8.50;;
38208;SDS011;24016;52.102;11.584;2023-04-01T04:48:43;20.45;;;9.25;;
38208;SDS011;24016;52.102;11.584;2023-04-01T04:51:12;21.45;;;12.02;;
38208;SDS011;24016;52.102;11.584;2023-04-01T04:53:39;19.45;;;10.90;;
38208;SDS011;24016;52.102;11.584;2023-04-01T04:56:05;20.90;;;9.13;;
38208;SDS011;24016;52.102;11.584;2023-04-01T04:58:31;40.38;;;23.52;;
38208;SDS011;24016;52.102;11.584;2023-04-01T05:00:57;42.28;;;20.73;;
38208;SDS011;24016;52.102;11.584;2023-04-01T05:03:22;30.67;;;15.20;;
38208;SDS011;24016;52.102;11.584;2023-04-01T05:05:51;23.83;;;11.00;;
38208;SDS011;24016;52.102;11.584;2023-04-01T05:08:18;22.92;;;9.95;;
38208;SDS011;24016;52.102;11.584;2023-04-01T05:10:44;24.67;;;10.30;;
38208;SDS011;24016;52.102;11.584;2023-04-01T05:13:10;25.45;;;10.25;;
38208;SDS011;24016;52.102;11.584;2023-04-01T05:15:36;21.63;;;10.48;;
38208;SDS011;24016;52.102;11.584;2023-04-01T05:18:02;20.35;;;10.75;;
38208;SDS011;24016;52.102;11.584;2023-04-01T05:20:27;23.48;;;12.15;;
38208;SDS011;24016;52.102;11.584;2023-04-01T05:22:56;21.30;;;10.50;;
38208;SDS011;24016;52.102;11.584;2023-04-01T05:25:22;22.25;;;10.95;;
38208;SDS011;24016;52.102;11.584;2023-04-01T05:27:48;60.60;;;29.05;;
38208;SDS011;24016;52.102;11.584;2023-04-01T05:30:14;66.68;;;38.28;;
38208;SDS011;24016;52.102;11.584;2023-04-01T05:32:39;37.70;;;19.75;;
38208;SDS011;24016;52.102;11.584;2023-04-01T05:35:05;34.15;;;19.00;;
38208;SDS011;24016;52.102;11.584;2023-04-01T05:37:33;29.80;;;19.05;;
38208;SDS011;24016;52.102;11.584;2023-04-01T05:39:59;31.73;;;21.02;;
38208;SDS011;24016;52.102;11.584;2023-04-01T05:42:24;28.20;;;20.95;;
38208;SDS011;24016;52.102;11.584;2023-04-01T05:44:50;32.78;;;18.17;;
38208;SDS011;24016;52.102;11.584;2023-04-01T05:47:16;29.52;;;20.80;;
38208;SDS011;24016;52.102;11.584;2023-04-01T05:49:41;25.10;;;16.60;;
38208;SDS011;24016;52.102;11.584;2023-04-01T05:52:07;30.40;;;13.32;;
38208;SDS011;24016;52.102;11.584;2023-04-01T05:54:33;17.98;;;11.65;;
38208;SDS011;24016;52.102;11.584;2023-04-01T05:56:58;18.42;;;9.80;;
38208;SDS011;24016;52.102;11.584;2023-04-01T05:59:24;18.77;;;9.35;;
38208;SDS011;24016;52.102;11.584;2023-04-01T06:01:49;16.35;;;8.50;;
38208;SDS011;24016;52.102;11.584;2023-04-01T06:04:15;16.77;;;7.95;;
38208;SDS011;24016;52.102;11.584;2023-04-01T06:06:42;14.35;;;8.40;;
38208;SDS011;24016;52.102;11.584;2023-04-01T06:09:27;13.27;;;7.60;;
38208;SDS011;24016;52.102;11.584;2023-04-01T06:12:00;14.13;;;7.22;;
38208;SDS011;24016;52.102;11.584;2023-04-01T06:14:37;18.88;;;7.63;;
38208;SDS011;24016;52.102;11.584;2023-04-01T06:17:27;14.15;;;7.50;;
38208;SDS011;24016;52.102;11.584;2023-04-01T06:20:24;17.30;;;7.20;;
38208;SDS011;24016;52.102;11.584;2023-04-01T06:23:10;11.82;;;6.78;;
38208;SDS011;24016;52.102;11.584;2023-04-01T06:31:20;16.33;;;8.52;;
38208;SDS011;24016;52.102;11.584;2023-04-01T06:45:37;9.55;;;4.20;;
38208;SDS011;24016;52.102;11.584;2023-04-01T06:48:33;10.77;;;4.90;;
38208;SDS011;24016;52.102;11.584;2023-04-01T06:51:55;15.57;;;7.55;;
38208;SDS011;24016;52.102;11.584;2023-04-01T06:54:34;13.65;;;8.70;;
38208;SDS011;24016;52.102;11.584;2023-04-01T06:57:18;11.63;;;7.47;;
38208;SDS011;24016;52.102;11.584;2023-04-01T06:59:48;9.88;;;6.25;;
38208;SDS011;24016;52.102;11.584;2023-04-01T07:02:27;15.85;;;8.27;;
38208;SDS011;24016;52.102;11.584;2023-04-01T07:05:02;11.00;;;6.63;;
38208;SDS011;24016;52.102;11.584;2023-04-01T07:07:32;10.73;;;6.10;;
38208;SDS011;24016;52.102;11.584;2023-04-01T07:13:04;9.95;;;5.57;;
38208;SDS011;24016;52.102;11.584;2023-04-01T07:15:36;9.55;;;4.40;;
38208;SDS011;24016;52.102;11.584;2023-04-01T07:18:10;8.63;;;4.82;;
38208;SDS011;24016;52.102;11.584;2023-04-01T07:20:42;8.80;;;5.93;;
38208;SDS011;24016;52.102;11.584;2023-04-01T07:23:15;10.25;;;5.40;;
38208;SDS011;24016;52.102;11.584;2023-04-01T07:25:48;8.43;;;4.75;;
38208;SDS011;24016;52.102;11.584;2023-04-01T07:28:20;9.63;;;4.40;;
38208;SDS011;24016;52.102;11.584;2023-04-01T07:31:06;9.68;;;5.40;;
38208;SDS011;24016;52.102;11.584;2023-04-01T07:34:04;9.73;;;5.88;;
38208;SDS011;24016;52.102;11.584;2023-04-01T07:42:09;6.65;;;4.85;;
38208;SDS011;24016;52.102;11.584;2023-04-01T07:50:20;8.38;;;3.97;;
38208;SDS011;24016;52.102;11.584;2023-04-01T07:55:46;7.18;;;3.40;;
38208;SDS011;24016;52.102;11.584;2023-04-01T07:58:33;4.97;;;2.67;;
38208;SDS011;24016;52.102;11.584;2023-04-01T08:01:17;5.00;;;2.30;;
38208;SDS011;24016;52.102;11.584;2023-04-01T08:03:54;4.90;;;2.10;;
38208;SDS011;24016;52.102;11.584;2023-04-01T08:09:23;3.83;;;1.80;;
38208;SDS011;24016;52.102;11.584;2023-04-01T08:15:15;4.03;;;1.50;;
38208;SDS011;24016;52.102;11.584;2023-04-01T08:20:29;2.28;;;1.55;;
38208;SDS011;24016;52.102;11.584;2023-04-01T08:29:14;4.32;;;1.40;;
38208;SDS011;24016;52.102;11.584;2023-04-01T08:31:57;4.45;;;1.83;;
38208;SDS011;24016;52.102;11.584;2023-04-01T08:34:39;3.38;;;1.40;;
38208;SDS011;24016;52.102;11.584;2023-04-01T08:39:58;1.73;;;1.05;;
38208;SDS011;24016;52.102;11.584;2023-04-01T08:43:06;3.40;;;1.40;;
38208;SDS011;24016;52.102;11.584;2023-04-01T08:46:13;3.28;;;1.25;;
38208;SDS011;24016;52.102;11.584;2023-04-01T08:52:27;3.13;;;1.33;;
38208;SDS011;24016;52.102;11.584;2023-04-01T08:58:26;4.72;;;1.42;;
38208;SDS011;24016;52.102;11.584;2023-04-01T09:01:14;3.13;;;1.30;;
38208;SDS011;24016;52.102;11.584;2023-04-01T09:12:01;2.38;;;1.10;;
38208;SDS011;24016;52.102;11.584;2023-04-01T09:15:16;4.10;;;1.27;;
38208;SDS011;24016;52.102;11.584;2023-04-01T09:17:51;2.92;;;1.10;;
38208;SDS011;24016;52.102;11.584;2023-04-01T09:20:44;3.30;;;1.20;;
38208;SDS011;24016;52.102;11.584;2023-04-01T09:29:14;2.20;;;1.13;;
38208;SDS011;24016;52.102;11.584;2023-04-01T09:32:27;3.42;;;1.35;;
38208;SDS011;24016;52.102;11.584;2023-04-01T09:38:03;2.63;;;1.10;;
38208;SDS011;24016;52.102;11.584;2023-04-01T09:40:57;3.22;;;1.40;;
38208;SDS011;24016;52.102;11.584;2023-04-01T09:43:32;2.22;;;1.10;;
38208;SDS011;24016;52.102;11.584;2023-04-01T09:46:11;3.45;;;1.20;;
38208;SDS011;24016;52.102;11.584;2023-04-01T09:55:05;3.60;;;1.10;;
38208;SDS011;24016;52.102;11.584;2023-04-01T10:03:05;3.08;;;1.25;;
38208;SDS011;24016;52.102;11.584;2023-04-01T10:06:02;3.78;;;1.13;;
38208;SDS011;24016;52.102;11.584;2023-04-01T10:08:51;3.07;;;1.13;;
38208;SDS011;24016;52.102;11.584;2023-04-01T10:11:59;2.95;;;1.13;;
38208;SDS011;24016;52.102;11.584;2023-04-01T10:17:32;3.15;;;0.98;;
38208;SDS011;24016;52.102;11.584;2023-04-01T10:20:28;1.23;;;0.77;;
38208;SDS011;24016;52.102;11.584;2023-04-01T10:29:30;4.75;;;1.10;;
38208;SDS011;24016;52.102;11.584;2023-04-01T10:32:23;2.20;;;1.02;;
38208;SDS011;24016;52.102;11.584;2023-04-01T10:44:25;4.15;;;1.05;;
38208;SDS011;24016;52.102;11.584;2023-04-01T10:49:40;2.20;;;1.00;;
38208;SDS011;24016;52.102;11.584;2023-04-01T10:52:30;2.80;;;1.30;;
38208;SDS011;24016;52.102;11.584;2023-04-01T10:58:29;2.47;;;1.25;;
38208;SDS011;24016;52.102;11.584;2023-04-01T11:07:22;1.48;;;0.82;;
38208;SDS011;24016;52.102;11.584;2023-04-01T11:10:37;2.53;;;1.13;;
38208;SDS011;24016;52.102;11.584;2023-04-01T11:13:33;3.40;;;1.15;;
38208;SDS011;24016;52.102;11.584;2023-04-01T11:16:22;3.85;;;1.00;;
38208;SDS011;24016;52.102;11.584;2023-04-01T11:19:15;4.90;;;1.63;;
38208;SDS011;24016;52.102;11.584;2023-04-01T11:22:19;4.35;;;1.33;;
38208;SDS011;24016;52.102;11.584;2023-04-01T11:33:25;2.03;;;1.05;;
38208;SDS011;24016;52.102;11.584;2023-04-01T11:38:57;2.75;;;1.25;;
38208;SDS011;24016;52.102;11.584;2023-04-01T11:41:56;3.33;;;1.30;;
38208;SDS011;24016;52.102;11.584;2023-04-01T11:44:29;2.03;;;1.08;;
38208;SDS011;24016;52.102;11.584;2023-04-01T11:53:07;2.03;;;0.63;;
38208;SDS011;24016;52.102;11.584;2023-04-01T11:58:41;1.50;;;0.80;;
38208;SDS011;24016;52.102;11.584;2023-04-01T12:01:14;3.10;;;0.80;;
38208;SDS011;24016;52.102;11.584;2023-04-01T12:04:00;2.33;;;0.82;;
38208;SDS011;24016;52.102;11.584;2023-04-01T12:06:51;1.75;;;1.00;;
38208;SDS011;24016;52.102;11.584;2023-04-01T12:09:35;1.65;;;0.70;;
38208;SDS011;24016;52.102;11.584;2023-04-01T12:15:22;1.98;;;1.08;;
38208;SDS011;24016;52.102;11.584;2023-04-01T12:20:43;3.33;;;0.50;;
38208;SDS011;24016;52.102;11.584;2023-04-01T12:26:19;2.75;;;0.70;;
38208;SDS011;24016;52.102;11.584;2023-04-01T12:28:57;1.73;;;1.00;;
38208;SDS011;24016;52.102;11.584;2023-04-01T12:40:31;2.25;;;0.80;;
38208;SDS011;24016;52.102;11.584;2023-04-01T12:45:45;1.13;;;0.70;;
38208;SDS011;24016;52.102;11.584;2023-04-01T12:51:20;1.10;;;0.68;;
38208;SDS011;24016;52.102;11.584;2023-04-01T12:54:17;2.35;;;0.60;;
38208;SDS011;24016;52.102;11.584;2023-04-01T12:56:56;1.35;;;0.40;;
38208;SDS011;24016;52.102;11.584;2023-04-01T12:59:45;1.10;;;0.45;;
38208;SDS011;24016;52.102;11.584;2023-04-01T13:11:19;1.75;;;0.80;;
38208;SDS011;24016;52.102;11.584;2023-04-01T13:14:10;1.25;;;0.60;;
38208;SDS011;24016;52.102;11.584;2023-04-01T13:16:45;2.60;;;0.93;;
38208;SDS011;24016;52.102;11.584;2023-04-01T13:19:21;0.85;;;0.60;;
38208;SDS011;24016;52.102;11.584;2023-04-01T13:21:58;1.48;;;0.70;;
38208;SDS011;24016;52.102;11.584;2023-04-01T13:24:38;2.10;;;0.90;;
38208;SDS011;24016;52.102;11.584;2023-04-01T13:27:08;1.00;;;0.70;;
38208;SDS011;24016;52.102;11.584;2023-04-01T13:29:36;1.60;;;0.80;;
38208;SDS011;24016;52.102;11.584;2023-04-01T13:32:13;1.15;;;0.65;;
38208;SDS011;24016;52.102;11.584;2023-04-01T13:40:30;1.13;;;0.73;;
38208;SDS011;24016;52.102;11.584;2023-04-01T13:43:04;1.33;;;0.80;;
38208;SDS011;24016;52.102;11.584;2023-04-01T13:48:33;3.80;;;1.17;;
38208;SDS011;24016;52.102;11.584;2023-04-01T13:51:20;1.45;;;0.98;;
38208;SDS011;24016;52.102;11.584;2023-04-01T14:02:13;2.35;;;0.70;;
38208;SDS011;24016;52.102;11.584;2023-04-01T14:07:56;1.88;;;0.80;;
38208;SDS011;24016;52.102;11.584;2023-04-01T14:16:38;0.93;;;0.70;;
38208;SDS011;24016;52.102;11.584;2023-04-01T14:19:24;1.48;;;1.00;;
38208;SDS011;24016;52.102;11.584;2023-04-01T14:22:12;2.30;;;1.20;;
38208;SDS011;24016;52.102;11.584;2023-04-01T14:24:51;2.45;;;1.35;;
38208;SDS011;24016;52.102;11.584;2023-04-01T14:27:41;3.05;;;1.60;;
38208;SDS011;24016;52.102;11.584;2023-04-01T14:41:51;6.78;;;4.00;;
38208;SDS011;24016;52.102;11.584;2023-04-01T14:47:28;7.43;;;5.35;;
38208;SDS011;24016;52.102;11.584;2023-04-01T14:50:17;6.97;;;5.70;;
38208;SDS011;24016;52.102;11.584;2023-04-01T14:53:08;8.15;;;6.78;;
38208;SDS011;24016;52.102;11.584;2023-04-01T14:55:51;8.60;;;7.70;;
38208;SDS011;24016;52.102;11.584;2023-04-01T14:58:22;8.50;;;7.38;;
38208;SDS011;24016;52.102;11.584;2023-04-01T15:00:56;8.38;;;7.13;;
38208;SDS011;24016;52.102;11.584;2023-04-01T15:04:22;8.40;;;6.57;;
38208;SDS011;24016;52.102;11.584;2023-04-01T15:06:33;6.78;;;6.07;;
38208;SDS011;24016;52.102;11.584;2023-04-01T15:15:50;7.75;;;6.18;;
38208;SDS011;24016;52.102;11.584;2023-04-01T15:18:39;8.40;;;6.78;;
38208;SDS011;24016;52.102;11.584;2023-04-01T15:21:31;9.38;;;7.78;;
38208;SDS011;24016;52.102;11.584;2023-04-01T15:24:07;11.70;;;8.90;;
38208;SDS011;24016;52.102;11.584;2023-04-01T15:27:00;15.18;;;10.40;;
38208;SDS011;24016;52.102;11.584;2023-04-01T15:38:34;25.70;;;16.92;;
38208;SDS011;24016;52.102;11.584;2023-04-01T15:41:08;25.17;;;16.85;;
38208;SDS011;24016;52.102;11.584;2023-04-01T15:46:13;25.42;;;16.70;;
38208;SDS011;24016;52.102;11.584;2023-04-01T15:54:27;18.50;;;12.50;;
38208;SDS011;24016;52.102;11.584;2023-04-01T16:00:09;13.63;;;10.65;;
38208;SDS011;24016;52.102;11.584;2023-04-01T16:02:48;11.43;;;9.45;;
38208;SDS011;24016;52.102;11.584;2023-04-01T16:05:27;11.45;;;9.95;;
38208;SDS011;24016;52.102;11.584;2023-04-01T16:08:00;12.85;;;9.75;;
38208;SDS011;24016;52.102;11.584;2023-04-01T16:13:40;12.55;;;9.82;;
38208;SDS011;24016;52.102;11.584;2023-04-01T16:19:23;11.70;;;9.10;;
38208;SDS011;24016;52.102;11.584;2023-04-01T16:32:50;10.98;;;8.45;;
38208;SDS011;24016;52.102;11.584;2023-04-01T16:46:25;10.25;;;7.47;;
38208;SDS011;24016;52.102;11.584;2023-04-01T16:48:59;9.95;;;7.03;;
38208;SDS011;24016;52.102;11.584;2023-04-01T16:51:26;9.10;;;6.22;;
38208;SDS011;24016;52.102;11.584;2023-04-01T16:56:55;10.30;;;7.07;;
38208;SDS011;24016;52.102;11.584;2023-04-01T17:02:26;10.07;;;6.97;;
38208;SDS011;24016;52.102;11.584;2023-04-01T17:07:46;9.02;;;7.40;;
38208;SDS011;24016;52.102;11.584;2023-04-01T17:13:15;10.73;;;7.75;;
38208;SDS011;24016;52.102;11.584;2023-04-01T17:15:56;10.48;;;8.10;;
38208;SDS011;24016;52.102;11.584;2023-04-01T17:18:49;10.32;;;7.70;;
38208;SDS011;24016;52.102;11.584;2023-04-01T17:24:27;11.20;;;7.97;;
38208;SDS011;24016;52.102;11.584;2023-04-01T17:32:55;10.68;;;7.90;;
38208;SDS011;24016;52.102;11.584;2023-04-01T17:38:45;10.82;;;8.15;;
38208;SDS011;24016;52.102;11.584;2023-04-01T17:41:36;10.70;;;8.25;;
38208;SDS011;24016;52.102;11.584;2023-04-01T17:44:16;13.43;;;8.77;;
38208;SDS011;24016;52.102;11.584;2023-04-01T17:47:01;10.95;;;8.43;;
38208;SDS011;24016;52.102;11.584;2023-04-01T17:49:42;11.63;;;8.20;;
38208;SDS011;24016;52.102;11.584;2023-04-01T17:52:34;8.27;;;6.05;;
38208;SDS011;24016;52.102;11.584;2023-04-01T17:57:55;8.73;;;6.30;;
38208;SDS011;24016;52.102;11.584;2023-04-01T18:03:18;8.65;;;6.40;;
38208;SDS011;24016;52.102;11.584;2023-04-01T18:08:43;9.63;;;6.68;;
38208;SDS011;24016;52.102;11.584;2023-04-01T18:19:25;9.85;;;7.30;;
38208;SDS011;24016;52.102;11.584;2023-04-01T18:22:17;8.20;;;6.95;;
38208;SDS011;24016;52.102;11.584;2023-04-01T18:24:55;11.38;;;8.75;;
38208;SDS011;24016;52.102;11.584;2023-04-01T18:30:54;9.00;;;7.47;;
38208;SDS011;24016;52.102;11.584;2023-04-01T18:36:08;13.27;;;8.63;;
38208;SDS011;24016;52.102;11.584;2023-04-01T18:38:57;10.85;;;7.55;;
38208;SDS011;24016;52.102;11.584;2023-04-01T18:41:42;13.00;;;8.35;;
38208;SDS011;24016;52.102;11.584;2023-04-01T18:46:58;9.88;;;6.93;;
38208;SDS011;24016;52.102;11.584;2023-04-01T18:52:44;8.35;;;7.00;;
38208;SDS011;24016;52.102;11.584;2023-04-01T18:57:46;10.93;;;7.95;;
38208;SDS011;24016;52.102;11.584;2023-04-01T19:00:22;7.93;;;6.88;;
38208;SDS011;24016;52.102;11.584;2023-04-01T19:02:58;9.43;;;7.45;;
38208;SDS011;24016;52.102;11.584;2023-04-01T19:05:38;11.98;;;7.28;;
38208;SDS011;24016;52.102;11.584;2023-04-01T19:31:30;8.25;;;6.82;;
38208;SDS011;24016;52.102;11.584;2023-04-01T19:34:21;7.47;;;5.75;;
38208;SDS011;24016;52.102;11.584;2023-04-01T19:37:05;8.35;;;6.13;;
38208;SDS011;24016;52.102;11.584;2023-04-01T19:40:00;6.97;;;5.55;;
38208;SDS011;24016;52.102;11.584;2023-04-01T19:42:48;7.65;;;6.50;;
38208;SDS011;24016;52.102;11.584;2023-04-01T19:45:29;10.18;;;6.45;;
38208;SDS011;24016;52.102;11.584;2023-04-01T19:50:43;8.98;;;5.80;;
38208;SDS011;24016;52.102;11.584;2023-04-01T19:56:23;10.10;;;7.72;;
38208;SDS011;24016;52.102;11.584;2023-04-01T19:59:05;7.18;;;5.93;;
38208;SDS011;24016;52.102;11.584;2023-04-01T20:01:44;9.07;;;6.90;;
38208;SDS011;24016;52.102;11.584;2023-04-01T20:04:26;8.60;;;5.90;;
38208;SDS011;24016;52.102;11.584;2023-04-01T20:07:09;8.38;;;6.72;;
38208;SDS011;24016;52.102;11.584;2023-04-01T20:15:31;8.52;;;6.63;;
38208;SDS011;24016;52.102;11.584;2023-04-01T20:18:19;14.52;;;9.95;;
38208;SDS011;24016;52.102;11.584;2023-04-01T20:21:03;8.88;;;6.45;;
38208;SDS011;24016;52.102;11.584;2023-04-01T20:26:18;11.25;;;8.02;;
38208;SDS011;24016;52.102;11.584;2023-04-01T20:29:04;10.00;;;7.63;;
38208;SDS011;24016;52.102;11.584;2023-04-01T20:31:54;11.60;;;9.63;;
38208;SDS011;24016;52.102;11.584;2023-04-01T20:37:24;12.68;;;9.18;;
38208;SDS011;24016;52.102;11.584;2023-04-01T20:40:26;11.90;;;8.82;;
38208;SDS011;24016;52.102;11.584;2023-04-01T20:43:04;10.93;;;9.48;;
38208;SDS011;24016;52.102;11.584;2023-04-01T20:46:32;12.00;;;9.00;;
38208;SDS011;24016;52.102;11.584;2023-04-01T20:49:20;16.90;;;10.35;;
38208;SDS011;24016;52.102;11.584;2023-04-01T20:54:44;13.93;;;10.20;;
38208;SDS011;24016;52.102;11.584;2023-04-01T21:11:35;18.63;;;10.80;;
38208;SDS011;24016;52.102;11.584;2023-04-01T21:20:04;12.48;;;10.18;;
38208;SDS011;24016;52.102;11.584;2023-04-01T21:31:36;19.30;;;11.20;;
38208;SDS011;24016;52.102;11.584;2023-04-01T21:40:09;14.10;;;11.07;;
38208;SDS011;24016;52.102;11.584;2023-04-01T21:54:35;19.33;;;12.48;;
38208;SDS011;24016;52.102;11.584;2023-04-01T22:05:28;22.27;;;12.85;;
38208;SDS011;24016;52.102;11.584;2023-04-01T22:08:26;21.55;;;12.48;;
38208;SDS011;24016;52.102;11.584;2023-04-01T22:14:09;27.15;;;13.57;;
38208;SDS011;24016;52.102;11.584;2023-04-01T22:17:02;21.00;;;12.85;;
38208;SDS011;24016;52.102;11.584;2023-04-01T22:22:13;21.13;;;13.90;;
38208;SDS011;24016;52.102;11.584;2023-04-01T22:24:58;20.73;;;13.95;;
38208;SDS011;24016;52.102;11.584;2023-04-01T22:27:52;20.15;;;13.15;;
38208;SDS011;24016;52.102;11.584;2023-04-01T22:30:23;20.40;;;13.13;;
38208;SDS011;24016;52.102;11.584;2023-04-01T22:33:02;24.85;;;14.07;;
38208;SDS011;24016;52.102;11.584;2023-04-01T22:41:13;21.55;;;13.77;;
38208;SDS011;24016;52.102;11.584;2023-04-01T22:43:57;19.95;;;13.73;;
38208;SDS011;24016;52.102;11.584;2023-04-01T22:46:30;18.20;;;12.60;;